sensor_id;sensor_type;location;lat;lon;timestamp;temperature;humidity
3136;DHT22;1578;47.658;9.922;2023-03-01T00:01:48;0.20;49.90
3136;DHT22;1578;47.658;9.922;2023-03-01T00:04:14;0.20;49.10
3136;DHT22;1578;47.658;9.922;2023-03-01T00:06:40;0.30;48.70
3136;DHT22;1578;47.658;9.922;2023-03-01T00:09:07;0.20;50.00
3136;DHT22;1578;47.658;9.922;2023-03-01T00:11:33;0.20;50.00
3136;DHT22;1578;47.658;9.922;2023-03-01T00:14:01;0.20;50.00
3136;DHT22;1578;47.658;9.922;2023-03-01T00:16:39;0.20;50.70
3136;DHT22;1578;47.658;9.922;2023-03-01T00:19:07;0.20;50.40
3136;DHT22;1578;47.658;9.922;2023-03-01T00:21:32;0.20;50.90
3136;DHT22;1578;47.658;9.922;2023-03-01T00:24:01;0.20;51.00
3136;DHT22;1578;47.658;9.922;2023-03-01T00:26:27;0.10;51.20
3136;DHT22;1578;47.658;9.922;2023-03-01T00:28:54;0.10;51.10
3136;DHT22;1578;47.658;9.922;2023-03-01T00:31:28;0.10;51.00
3136;DHT22;1578;47.658;9.922;2023-03-01T00:33:58;0.10;51.20
3136;DHT22;1578;47.658;9.922;2023-03-01T00:36:26;0.10;51.00
3136;DHT22;1578;47.658;9.922;2023-03-01T00:38:52;0.10;51.70
3136;DHT22;1578;47.658;9.922;2023-03-01T00:41:20;0.10;53.00
3136;DHT22;1578;47.658;9.922;2023-03-01T00:43:48;0.10;51.00
3136;DHT22;1578;47.658;9.922;2023-03-01T00:46:16;0.10;52.20
3136;DHT22;1578;47.658;9.922;2023-03-01T00:48:42;0.00;52.50
3136;DHT22;1578;47.658;9.922;2023-03-01T00:51:10;0.00;53.90
3136;DHT22;1578;47.658;9.922;2023-03-01T00:53:37;0.10;52.80
3136;DHT22;1578;47.658;9.922;2023-03-01T00:56:04;0.00;52.90
3136;DHT22;1578;47.658;9.922;2023-03-01T00:58:30;0.00;53.20
3136;DHT22;1578;47.658;9.922;2023-03-01T01:00:55;0.00;53.80
3136;DHT22;1578;47.658;9.922;2023-03-01T01:03:22;0.00;54.00
3136;DHT22;1578;47.658;9.922;2023-03-01T01:05:53;0.10;53.80
3136;DHT22;1578;47.658;9.922;2023-03-01T01:08:20;0.10;53.90
3136;DHT22;1578;47.658;9.922;2023-03-01T01:10:46;0.20;53.90
3136;DHT22;1578;47.658;9.922;2023-03-01T01:13:12;0.20;53.40
3136;DHT22;1578;47.658;9.922;2023-03-01T01:15:38;0.20;53.40
3136;DHT22;1578;47.658;9.922;2023-03-01T01:18:04;0.20;52.00
3136;DHT22;1578;47.658;9.922;2023-03-01T01:20:29;0.30;52.60
3136;DHT22;1578;47.658;9.922;2023-03-01T01:22:55;0.20;53.10
3136;DHT22;1578;47.658;9.922;2023-03-01T01:25:21;0.30;52.40
3136;DHT22;1578;47.658;9.922;2023-03-01T01:27:47;0.30;52.30
3136;DHT22;1578;47.658;9.922;2023-03-01T01:30:13;0.30;52.70
3136;DHT22;1578;47.658;9.922;2023-03-01T01:32:39;0.30;52.40
3136;DHT22;1578;47.658;9.922;2023-03-01T01:35:05;0.30;53.20
3136;DHT22;1578;47.658;9.922;2023-03-01T01:37:30;0.20;53.40
3136;DHT22;1578;47.658;9.922;2023-03-01T01:40:00;0.20;53.10
3136;DHT22;1578;47.658;9.922;2023-03-01T01:42:27;0.20;53.10
3136;DHT22;1578;47.658;9.922;2023-03-01T01:45:31;0.20;52.70
3136;DHT22;1578;47.658;9.922;2023-03-01T01:48:02;0.20;53.70
3136;DHT22;1578;47.658;9.922;2023-03-01T01:50:30;0.20;53.10
3136;DHT22;1578;47.658;9.922;2023-03-01T01:53:06;0.20;53.10
3136;DHT22;1578;47.658;9.922;2023-03-01T01:55:36;0.20;53.40
3136;DHT22;1578;47.658;9.922;2023-03-01T01:58:04;0.10;54.00
3136;DHT22;1578;47.658;9.922;2023-03-01T02:00:31;0.10;54.50
3136;DHT22;1578;47.658;9.922;2023-03-01T02:03:18;0.20;55.10
3136;DHT22;1578;47.658;9.922;2023-03-01T02:05:55;0.10;53.90
3136;DHT22;1578;47.658;9.922;2023-03-01T02:08:25;0.10;53.30
3136;DHT22;1578;47.658;9.922;2023-03-01T02:10:51;0.10;53.50
3136;DHT22;1578;47.658;9.922;2023-03-01T02:13:18;0.00;54.50
3136;DHT22;1578;47.658;9.922;2023-03-01T02:15:43;0.00;54.60
3136;DHT22;1578;47.658;9.922;2023-03-01T02:18:12;0.10;54.80
3136;DHT22;1578;47.658;9.922;2023-03-01T02:20:51;0.20;53.80
3136;DHT22;1578;47.658;9.922;2023-03-01T02:23:18;0.20;53.10
3136;DHT22;1578;47.658;9.922;2023-03-01T02:25:51;0.20;54.50
3136;DHT22;1578;47.658;9.922;2023-03-01T02:28:36;0.20;54.30
3136;DHT22;1578;47.658;9.922;2023-03-01T02:31:05;0.30;52.60
3136;DHT22;1578;47.658;9.922;2023-03-01T02:33:51;0.20;53.80
3136;DHT22;1578;47.658;9.922;2023-03-01T02:36:24;0.30;53.20
3136;DHT22;1578;47.658;9.922;2023-03-01T02:38:53;0.20;54.10
3136;DHT22;1578;47.658;9.922;2023-03-01T02:41:21;0.10;55.60
3136;DHT22;1578;47.658;9.922;2023-03-01T02:43:47;0.10;55.20
3136;DHT22;1578;47.658;9.922;2023-03-01T02:46:18;0.20;54.70
3136;DHT22;1578;47.658;9.922;2023-03-01T02:48:49;0.30;54.10
3136;DHT22;1578;47.658;9.922;2023-03-01T02:51:45;0.20;54.50
3136;DHT22;1578;47.658;9.922;2023-03-01T02:54:24;0.10;55.50
3136;DHT22;1578;47.658;9.922;2023-03-01T02:56:53;0.10;55.80
3136;DHT22;1578;47.658;9.922;2023-03-01T02:59:21;0.20;55.90
3136;DHT22;1578;47.658;9.922;2023-03-01T03:01:48;0.30;54.50
3136;DHT22;1578;47.658;9.922;2023-03-01T03:04:16;0.20;55.10
3136;DHT22;1578;47.658;9.922;2023-03-01T03:06:44;0.20;54.80
3136;DHT22;1578;47.658;9.922;2023-03-01T03:09:10;0.10;55.50
3136;DHT22;1578;47.658;9.922;2023-03-01T03:11:35;0.20;55.70
3136;DHT22;1578;47.658;9.922;2023-03-01T03:14:02;0.30;54.90
3136;DHT22;1578;47.658;9.922;2023-03-01T03:16:28;0.30;54.70
3136;DHT22;1578;47.658;9.922;2023-03-01T03:18:55;0.30;54.80
3136;DHT22;1578;47.658;9.922;2023-03-01T03:21:32;0.30;56.00
3136;DHT22;1578;47.658;9.922;2023-03-01T03:23:58;0.20;56.50
3136;DHT22;1578;47.658;9.922;2023-03-01T03:26:24;0.30;55.30
3136;DHT22;1578;47.658;9.922;2023-03-01T03:28:50;0.30;55.30
3136;DHT22;1578;47.658;9.922;2023-03-01T03:31:15;0.30;54.70
3136;DHT22;1578;47.658;9.922;2023-03-01T03:33:41;0.30;55.60
3136;DHT22;1578;47.658;9.922;2023-03-01T03:36:07;0.30;55.70
3136;DHT22;1578;47.658;9.922;2023-03-01T03:38:39;0.40;55.20
3136;DHT22;1578;47.658;9.922;2023-03-01T03:41:06;0.40;54.60
3136;DHT22;1578;47.658;9.922;2023-03-01T03:43:34;0.40;55.60
3136;DHT22;1578;47.658;9.922;2023-03-01T03:46:01;0.30;55.10
3136;DHT22;1578;47.658;9.922;2023-03-01T03:48:34;0.20;56.10
3136;DHT22;1578;47.658;9.922;2023-03-01T03:51:00;0.20;57.60
3136;DHT22;1578;47.658;9.922;2023-03-01T03:53:28;0.30;56.40
3136;DHT22;1578;47.658;9.922;2023-03-01T03:55:55;0.40;55.40
3136;DHT22;1578;47.658;9.922;2023-03-01T03:58:22;0.30;55.70
3136;DHT22;1578;47.658;9.922;2023-03-01T04:00:51;0.30;55.60
3136;DHT22;1578;47.658;9.922;2023-03-01T04:03:18;0.30;56.60
3136;DHT22;1578;47.658;9.922;2023-03-01T04:05:46;0.30;56.10
3136;DHT22;1578;47.658;9.922;2023-03-01T04:08:12;0.20;55.40
3136;DHT22;1578;47.658;9.922;2023-03-01T04:10:40;0.20;57.00
3136;DHT22;1578;47.658;9.922;2023-03-01T04:13:07;0.20;57.60
3136;DHT22;1578;47.658;9.922;2023-03-01T04:15:33;0.20;56.90
3136;DHT22;1578;47.658;9.922;2023-03-01T04:17:59;0.20;57.60
3136;DHT22;1578;47.658;9.922;2023-03-01T04:20:28;0.20;58.30
3136;DHT22;1578;47.658;9.922;2023-03-01T04:23:01;0.10;57.90
3136;DHT22;1578;47.658;9.922;2023-03-01T04:25:48;0.10;58.10
3136;DHT22;1578;47.658;9.922;2023-03-01T04:28:41;0.20;58.00
3136;DHT22;1578;47.658;9.922;2023-03-01T04:31:13;0.10;59.30
3136;DHT22;1578;47.658;9.922;2023-03-01T04:33:44;0.10;59.40
3136;DHT22;1578;47.658;9.922;2023-03-01T04:36:11;0.10;58.30
3136;DHT22;1578;47.658;9.922;2023-03-01T04:38:37;0.10;59.20
3136;DHT22;1578;47.658;9.922;2023-03-01T04:41:05;0.00;59.70
3136;DHT22;1578;47.658;9.922;2023-03-01T04:43:31;0.10;57.50
3136;DHT22;1578;47.658;9.922;2023-03-01T04:46:01;0.10;59.30
3136;DHT22;1578;47.658;9.922;2023-03-01T04:48:28;0.00;59.70
3136;DHT22;1578;47.658;9.922;2023-03-01T04:50:54;-0.10;58.60
3136;DHT22;1578;47.658;9.922;2023-03-01T04:53:19;-0.10;59.10
3136;DHT22;1578;47.658;9.922;2023-03-01T04:55:45;-0.10;59.50
3136;DHT22;1578;47.658;9.922;2023-03-01T04:58:11;-0.10;60.20
3136;DHT22;1578;47.658;9.922;2023-03-01T05:00:37;-0.10;60.20
3136;DHT22;1578;47.658;9.922;2023-03-01T05:03:02;-0.10;59.70
3136;DHT22;1578;47.658;9.922;2023-03-01T05:05:34;-0.10;60.20
3136;DHT22;1578;47.658;9.922;2023-03-01T05:08:04;0.00;59.10
3136;DHT22;1578;47.658;9.922;2023-03-01T05:10:32;0.00;57.60
3136;DHT22;1578;47.658;9.922;2023-03-01T05:12:59;0.00;57.40
3136;DHT22;1578;47.658;9.922;2023-03-01T05:15:27;-0.10;59.50
3136;DHT22;1578;47.658;9.922;2023-03-01T05:17:55;-0.10;58.60
3136;DHT22;1578;47.658;9.922;2023-03-01T05:20:25;0.00;56.60
3136;DHT22;1578;47.658;9.922;2023-03-01T05:22:51;-0.10;58.00
3136;DHT22;1578;47.658;9.922;2023-03-01T05:25:17;-0.10;57.80
3136;DHT22;1578;47.658;9.922;2023-03-01T05:27:43;-0.10;58.00
3136;DHT22;1578;47.658;9.922;2023-03-01T05:30:09;-0.10;57.90
3136;DHT22;1578;47.658;9.922;2023-03-01T05:32:47;0.00;57.90
3136;DHT22;1578;47.658;9.922;2023-03-01T05:35:15;-0.10;57.30
3136;DHT22;1578;47.658;9.922;2023-03-01T05:37:46;-0.10;58.00
3136;DHT22;1578;47.658;9.922;2023-03-01T05:40:15;-0.10;58.00
3136;DHT22;1578;47.658;9.922;2023-03-01T05:42:44;-0.10;58.30
3136;DHT22;1578;47.658;9.922;2023-03-01T05:45:10;-0.10;58.70
3136;DHT22;1578;47.658;9.922;2023-03-01T05:47:38;0.00;57.70
3136;DHT22;1578;47.658;9.922;2023-03-01T05:50:10;0.00;57.10
3136;DHT22;1578;47.658;9.922;2023-03-01T05:52:36;-0.10;57.30
3136;DHT22;1578;47.658;9.922;2023-03-01T05:55:02;-0.10;58.10
3136;DHT22;1578;47.658;9.922;2023-03-01T05:57:28;-0.10;58.10
3136;DHT22;1578;47.658;9.922;2023-03-01T05:59:54;0.00;57.40
3136;DHT22;1578;47.658;9.922;2023-03-01T06:02:20;0.10;56.40
3136;DHT22;1578;47.658;9.922;2023-03-01T06:04:45;0.00;57.40
3136;DHT22;1578;47.658;9.922;2023-03-01T06:07:11;-0.10;57.30
3136;DHT22;1578;47.658;9.922;2023-03-01T06:09:37;0.00;57.50
3136;DHT22;1578;47.658;9.922;2023-03-01T06:12:02;-0.10;57.30
3136;DHT22;1578;47.658;9.922;2023-03-01T06:14:28;0.00;57.40
3136;DHT22;1578;47.658;9.922;2023-03-01T06:16:54;0.00;57.40
3136;DHT22;1578;47.658;9.922;2023-03-01T06:19:19;0.00;57.90
3136;DHT22;1578;47.658;9.922;2023-03-01T06:21:45;0.00;57.70
3136;DHT22;1578;47.658;9.922;2023-03-01T06:24:11;-0.10;58.30
3136;DHT22;1578;47.658;9.922;2023-03-01T06:26:36;-0.10;59.40
3136;DHT22;1578;47.658;9.922;2023-03-01T06:29:02;-0.10;59.00
3136;DHT22;1578;47.658;9.922;2023-03-01T06:31:27;-0.10;59.10
3136;DHT22;1578;47.658;9.922;2023-03-01T06:33:53;-0.10;59.10
3136;DHT22;1578;47.658;9.922;2023-03-01T06:36:19;-0.10;57.90
3136;DHT22;1578;47.658;9.922;2023-03-01T06:38:46;-0.10;58.50
3136;DHT22;1578;47.658;9.922;2023-03-01T06:41:12;-0.10;59.10
3136;DHT22;1578;47.658;9.922;2023-03-01T06:43:37;0.00;57.40
3136;DHT22;1578;47.658;9.922;2023-03-01T06:46:04;-0.10;57.40
3136;DHT22;1578;47.658;9.922;2023-03-01T06:48:32;-0.10;57.30
3136;DHT22;1578;47.658;9.922;2023-03-01T06:50:59;-0.10;57.40
3136;DHT22;1578;47.658;9.922;2023-03-01T06:53:29;-0.10;58.20
3136;DHT22;1578;47.658;9.922;2023-03-01T06:55:58;-0.20;58.90
3136;DHT22;1578;47.658;9.922;2023-03-01T06:58:25;-0.20;58.60
3136;DHT22;1578;47.658;9.922;2023-03-01T07:00:51;-0.20;58.30
3136;DHT22;1578;47.658;9.922;2023-03-01T07:03:17;-0.20;58.80
3136;DHT22;1578;47.658;9.922;2023-03-01T07:05:42;-0.10;58.10
3136;DHT22;1578;47.658;9.922;2023-03-01T07:08:08;0.00;57.80
3136;DHT22;1578;47.658;9.922;2023-03-01T07:10:33;0.00;57.40
3136;DHT22;1578;47.658;9.922;2023-03-01T07:12:59;0.00;58.40
3136;DHT22;1578;47.658;9.922;2023-03-01T07:15:26;0.00;57.90
3136;DHT22;1578;47.658;9.922;2023-03-01T07:17:52;0.00;58.10
3136;DHT22;1578;47.658;9.922;2023-03-01T07:20:18;0.10;57.50
3136;DHT22;1578;47.658;9.922;2023-03-01T07:22:44;0.10;57.60
3136;DHT22;1578;47.658;9.922;2023-03-01T07:25:10;0.20;56.90
3136;DHT22;1578;47.658;9.922;2023-03-01T07:27:36;0.20;56.90
3136;DHT22;1578;47.658;9.922;2023-03-01T07:30:02;0.20;55.60
3136;DHT22;1578;47.658;9.922;2023-03-01T07:32:30;0.20;56.90
3136;DHT22;1578;47.658;9.922;2023-03-01T07:34:55;0.20;56.60
3136;DHT22;1578;47.658;9.922;2023-03-01T07:37:21;0.30;56.00
3136;DHT22;1578;47.658;9.922;2023-03-01T07:39:47;0.30;56.50
3136;DHT22;1578;47.658;9.922;2023-03-01T07:42:12;0.30;55.90
3136;DHT22;1578;47.658;9.922;2023-03-01T07:44:38;0.30;55.70
3136;DHT22;1578;47.658;9.922;2023-03-01T07:47:04;0.40;55.30
3136;DHT22;1578;47.658;9.922;2023-03-01T07:49:30;0.40;54.90
3136;DHT22;1578;47.658;9.922;2023-03-01T07:51:55;0.40;54.00
3136;DHT22;1578;47.658;9.922;2023-03-01T07:54:21;0.40;55.00
3136;DHT22;1578;47.658;9.922;2023-03-01T07:56:47;0.50;54.40
3136;DHT22;1578;47.658;9.922;2023-03-01T07:59:12;0.50;54.30
3136;DHT22;1578;47.658;9.922;2023-03-01T08:01:38;0.50;53.80
3136;DHT22;1578;47.658;9.922;2023-03-01T08:04:04;0.50;53.40
3136;DHT22;1578;47.658;9.922;2023-03-01T08:06:34;0.60;53.50
3136;DHT22;1578;47.658;9.922;2023-03-01T08:09:00;0.60;53.50
3136;DHT22;1578;47.658;9.922;2023-03-01T08:11:25;0.60;52.50
3136;DHT22;1578;47.658;9.922;2023-03-01T08:13:53;0.60;52.70
3136;DHT22;1578;47.658;9.922;2023-03-01T08:16:19;0.60;52.80
3136;DHT22;1578;47.658;9.922;2023-03-01T08:18:45;0.60;52.00
3136;DHT22;1578;47.658;9.922;2023-03-01T08:21:15;0.60;52.50
3136;DHT22;1578;47.658;9.922;2023-03-01T08:23:41;0.60;53.50
3136;DHT22;1578;47.658;9.922;2023-03-01T08:26:19;0.60;52.70
3136;DHT22;1578;47.658;9.922;2023-03-01T08:28:45;0.60;51.50
3136;DHT22;1578;47.658;9.922;2023-03-01T08:31:24;0.50;54.20
3136;DHT22;1578;47.658;9.922;2023-03-01T08:33:52;0.50;53.60
3136;DHT22;1578;47.658;9.922;2023-03-01T08:36:25;0.50;53.10
3136;DHT22;1578;47.658;9.922;2023-03-01T08:38:51;0.60;53.20
3136;DHT22;1578;47.658;9.922;2023-03-01T08:41:17;0.60;52.50
3136;DHT22;1578;47.658;9.922;2023-03-01T08:43:43;0.60;53.20
3136;DHT22;1578;47.658;9.922;2023-03-01T08:46:09;0.50;53.40
3136;DHT22;1578;47.658;9.922;2023-03-01T08:48:35;0.60;53.20
3136;DHT22;1578;47.658;9.922;2023-03-01T08:51:18;0.50;52.90
3136;DHT22;1578;47.658;9.922;2023-03-01T08:53:44;0.60;52.90
3136;DHT22;1578;47.658;9.922;2023-03-01T08:56:10;0.60;51.70
3136;DHT22;1578;47.658;9.922;2023-03-01T08:58:36;0.70;52.50
3136;DHT22;1578;47.658;9.922;2023-03-01T09:01:13;0.70;52.70
3136;DHT22;1578;47.658;9.922;2023-03-01T09:03:39;0.70;52.90
3136;DHT22;1578;47.658;9.922;2023-03-01T09:06:06;0.70;53.50
3136;DHT22;1578;47.658;9.922;2023-03-01T09:08:37;0.70;53.20
3136;DHT22;1578;47.658;9.922;2023-03-01T09:11:08;0.70;53.80
3136;DHT22;1578;47.658;9.922;2023-03-01T09:13:34;0.80;52.30
3136;DHT22;1578;47.658;9.922;2023-03-01T09:16:02;0.80;52.30
3136;DHT22;1578;47.658;9.922;2023-03-01T09:18:28;0.80;52.90
3136;DHT22;1578;47.658;9.922;2023-03-01T09:21:06;0.90;52.30
3136;DHT22;1578;47.658;9.922;2023-03-01T09:23:37;1.00;51.20
3136;DHT22;1578;47.658;9.922;2023-03-01T09:26:09;1.00;52.10
3136;DHT22;1578;47.658;9.922;2023-03-01T09:28:36;1.10;49.30
3136;DHT22;1578;47.658;9.922;2023-03-01T09:31:02;1.10;51.20
3136;DHT22;1578;47.658;9.922;2023-03-01T09:33:29;1.20;52.40
3136;DHT22;1578;47.658;9.922;2023-03-01T09:36:04;1.30;51.50
3136;DHT22;1578;47.658;9.922;2023-03-01T09:38:31;1.30;49.00
3136;DHT22;1578;47.658;9.922;2023-03-01T09:40:57;1.40;49.60
3136;DHT22;1578;47.658;9.922;2023-03-01T09:43:43;1.40;49.60
3136;DHT22;1578;47.658;9.922;2023-03-01T09:46:12;1.40;49.30
3136;DHT22;1578;47.658;9.922;2023-03-01T09:49:09;1.50;48.60
3136;DHT22;1578;47.658;9.922;2023-03-01T09:51:36;1.60;48.50
3136;DHT22;1578;47.658;9.922;2023-03-01T09:54:03;1.50;46.30
3136;DHT22;1578;47.658;9.922;2023-03-01T09:56:45;1.60;47.10
3136;DHT22;1578;47.658;9.922;2023-03-01T09:59:29;1.60;48.90
3136;DHT22;1578;47.658;9.922;2023-03-01T10:09:39;1.60;45.70
3136;DHT22;1578;47.658;9.922;2023-03-01T10:12:10;1.50;48.10
3136;DHT22;1578;47.658;9.922;2023-03-01T10:14:57;1.50;48.20
3136;DHT22;1578;47.658;9.922;2023-03-01T10:17:39;1.50;48.50
3136;DHT22;1578;47.658;9.922;2023-03-01T10:20:23;1.60;47.10
3136;DHT22;1578;47.658;9.922;2023-03-01T10:22:50;1.50;47.20
3136;DHT22;1578;47.658;9.922;2023-03-01T10:25:47;1.60;48.20
3136;DHT22;1578;47.658;9.922;2023-03-01T10:28:39;1.60;46.90
3136;DHT22;1578;47.658;9.922;2023-03-01T10:31:13;1.80;46.90
3136;DHT22;1578;47.658;9.922;2023-03-01T10:33:40;1.90;44.50
3136;DHT22;1578;47.658;9.922;2023-03-01T10:36:06;1.80;45.30
3136;DHT22;1578;47.658;9.922;2023-03-01T10:38:54;1.90;46.10
3136;DHT22;1578;47.658;9.922;2023-03-01T10:41:23;2.00;44.90
3136;DHT22;1578;47.658;9.922;2023-03-01T10:43:56;2.10;45.50
3136;DHT22;1578;47.658;9.922;2023-03-01T10:46:36;2.00;44.90
3136;DHT22;1578;47.658;9.922;2023-03-01T10:49:14;2.10;44.90
3136;DHT22;1578;47.658;9.922;2023-03-01T10:51:42;2.00;44.60
3136;DHT22;1578;47.658;9.922;2023-03-01T10:54:27;2.00;43.90
3136;DHT22;1578;47.658;9.922;2023-03-01T10:57:01;2.00;45.40
3136;DHT22;1578;47.658;9.922;2023-03-01T10:59:32;2.00;45.10
3136;DHT22;1578;47.658;9.922;2023-03-01T11:02:16;2.00;45.80
3136;DHT22;1578;47.658;9.922;2023-03-01T11:07:27;2.10;44.40
3136;DHT22;1578;47.658;9.922;2023-03-01T11:09:53;2.10;44.70
3136;DHT22;1578;47.658;9.922;2023-03-01T11:12:20;2.00;44.90
3136;DHT22;1578;47.658;9.922;2023-03-01T11:14:54;1.90;46.00
3136;DHT22;1578;47.658;9.922;2023-03-01T11:17:25;1.80;46.30
3136;DHT22;1578;47.658;9.922;2023-03-01T11:22:46;2.10;45.90
3136;DHT22;1578;47.658;9.922;2023-03-01T11:25:14;2.20;43.80
3136;DHT22;1578;47.658;9.922;2023-03-01T11:27:45;2.10;44.40
3136;DHT22;1578;47.658;9.922;2023-03-01T11:33:24;2.30;44.30
3136;DHT22;1578;47.658;9.922;2023-03-01T11:36:07;2.30;43.30
3136;DHT22;1578;47.658;9.922;2023-03-01T11:38:38;2.40;44.50
3136;DHT22;1578;47.658;9.922;2023-03-01T11:44:00;2.60;41.80
3136;DHT22;1578;47.658;9.922;2023-03-01T11:55:30;2.50;41.20
3136;DHT22;1578;47.658;9.922;2023-03-01T11:58:04;2.60;42.30
3136;DHT22;1578;47.658;9.922;2023-03-01T12:03:49;2.40;41.10
3136;DHT22;1578;47.658;9.922;2023-03-01T12:12:11;2.60;41.30
3136;DHT22;1578;47.658;9.922;2023-03-01T12:17:24;2.50;40.00
3136;DHT22;1578;47.658;9.922;2023-03-01T12:45:07;2.50;40.30
3136;DHT22;1578;47.658;9.922;2023-03-01T12:47:58;2.30;42.00
3136;DHT22;1578;47.658;9.922;2023-03-01T12:50:40;2.20;42.50
3136;DHT22;1578;47.658;9.922;2023-03-01T12:53:26;2.10;42.20
3136;DHT22;1578;47.658;9.922;2023-03-01T12:55:59;2.10;42.50
3136;DHT22;1578;47.658;9.922;2023-03-01T13:06:43;2.50;43.50
3136;DHT22;1578;47.658;9.922;2023-03-01T13:09:19;2.70;42.90
3136;DHT22;1578;47.658;9.922;2023-03-01T13:11:49;2.80;39.70
3136;DHT22;1578;47.658;9.922;2023-03-01T13:16:47;2.80;39.80
3136;DHT22;1578;47.658;9.922;2023-03-01T13:19:26;2.80;39.60
3136;DHT22;1578;47.658;9.922;2023-03-01T13:21:55;2.70;40.30
3136;DHT22;1578;47.658;9.922;2023-03-01T13:24:37;2.80;39.50
3136;DHT22;1578;47.658;9.922;2023-03-01T13:29:49;2.60;40.60
3136;DHT22;1578;47.658;9.922;2023-03-01T13:32:26;2.40;40.70
3136;DHT22;1578;47.658;9.922;2023-03-01T13:35:47;2.30;43.40
3136;DHT22;1578;47.658;9.922;2023-03-01T13:37:48;2.40;43.80
3136;DHT22;1578;47.658;9.922;2023-03-01T13:42:48;2.50;41.20
3136;DHT22;1578;47.658;9.922;2023-03-01T13:46:02;2.60;41.30
3136;DHT22;1578;47.658;9.922;2023-03-01T13:48:26;2.80;41.50
3136;DHT22;1578;47.658;9.922;2023-03-01T13:50:56;2.80;38.00
3136;DHT22;1578;47.658;9.922;2023-03-01T13:53:26;2.80;40.30
3136;DHT22;1578;47.658;9.922;2023-03-01T13:56:00;2.90;40.80
3136;DHT22;1578;47.658;9.922;2023-03-01T13:58:29;2.90;37.70
3136;DHT22;1578;47.658;9.922;2023-03-01T14:01:00;2.70;37.90
3136;DHT22;1578;47.658;9.922;2023-03-01T14:03:26;2.60;38.20
3136;DHT22;1578;47.658;9.922;2023-03-01T14:06:08;2.70;40.50
3136;DHT22;1578;47.658;9.922;2023-03-01T14:08:36;2.70;40.30
3136;DHT22;1578;47.658;9.922;2023-03-01T14:16:52;3.20;40.30
3136;DHT22;1578;47.658;9.922;2023-03-01T14:19:26;3.30;38.00
3136;DHT22;1578;47.658;9.922;2023-03-01T14:22:20;3.40;37.30
3136;DHT22;1578;47.658;9.922;2023-03-01T14:24:50;3.50;36.50
3136;DHT22;1578;47.658;9.922;2023-03-01T14:27:18;3.40;35.90
3136;DHT22;1578;47.658;9.922;2023-03-01T14:29:53;3.40;35.30
3136;DHT22;1578;47.658;9.922;2023-03-01T14:32:24;3.30;36.10
3136;DHT22;1578;47.658;9.922;2023-03-01T14:34:51;3.30;36.00
3136;DHT22;1578;47.658;9.922;2023-03-01T14:37:25;3.30;37.70
3136;DHT22;1578;47.658;9.922;2023-03-01T14:39:52;3.20;37.10
3136;DHT22;1578;47.658;9.922;2023-03-01T14:42:21;3.30;36.80
3136;DHT22;1578;47.658;9.922;2023-03-01T14:44:51;3.30;37.20
3136;DHT22;1578;47.658;9.922;2023-03-01T14:47:31;3.10;37.60
3136;DHT22;1578;47.658;9.922;2023-03-01T14:50:10;3.10;37.00
3136;DHT22;1578;47.658;9.922;2023-03-01T14:52:42;3.00;37.60
3136;DHT22;1578;47.658;9.922;2023-03-01T14:55:16;3.10;37.90
3136;DHT22;1578;47.658;9.922;2023-03-01T14:57:44;2.90;38.50
3136;DHT22;1578;47.658;9.922;2023-03-01T15:00:20;2.90;39.10
3136;DHT22;1578;47.658;9.922;2023-03-01T15:02:49;3.00;38.40
3136;DHT22;1578;47.658;9.922;2023-03-01T15:05:24;3.00;38.90
3136;DHT22;1578;47.658;9.922;2023-03-01T15:07:51;3.00;38.80
3136;DHT22;1578;47.658;9.922;2023-03-01T15:10:21;3.10;37.50
3136;DHT22;1578;47.658;9.922;2023-03-01T15:12:47;3.00;39.20
3136;DHT22;1578;47.658;9.922;2023-03-01T15:17:56;2.70;38.60
3136;DHT22;1578;47.658;9.922;2023-03-01T15:20:24;2.60;39.70
3136;DHT22;1578;47.658;9.922;2023-03-01T15:22:52;2.60;41.30
3136;DHT22;1578;47.658;9.922;2023-03-01T15:25:19;2.70;40.80
3136;DHT22;1578;47.658;9.922;2023-03-01T15:27:48;2.70;40.40
3136;DHT22;1578;47.658;9.922;2023-03-01T15:30:31;2.70;41.40
3136;DHT22;1578;47.658;9.922;2023-03-01T15:35:58;2.20;43.80
3136;DHT22;1578;47.658;9.922;2023-03-01T15:38:30;2.20;45.20
3136;DHT22;1578;47.658;9.922;2023-03-01T15:40:59;2.00;46.10
3136;DHT22;1578;47.658;9.922;2023-03-01T15:46:03;2.00;44.80
3136;DHT22;1578;47.658;9.922;2023-03-01T15:48:30;1.90;46.50
3136;DHT22;1578;47.658;9.922;2023-03-01T15:50:58;1.90;45.50
3136;DHT22;1578;47.658;9.922;2023-03-01T15:53:24;1.80;47.20
3136;DHT22;1578;47.658;9.922;2023-03-01T15:55:52;1.70;46.20
3136;DHT22;1578;47.658;9.922;2023-03-01T15:58:20;1.80;47.60
3136;DHT22;1578;47.658;9.922;2023-03-01T16:00:47;1.80;47.30
3136;DHT22;1578;47.658;9.922;2023-03-01T16:03:14;1.80;48.00
3136;DHT22;1578;47.658;9.922;2023-03-01T16:05:47;1.90;47.80
3136;DHT22;1578;47.658;9.922;2023-03-01T16:08:13;2.00;47.10
3136;DHT22;1578;47.658;9.922;2023-03-01T16:10:40;2.00;45.20
3136;DHT22;1578;47.658;9.922;2023-03-01T16:13:06;1.90;46.10
3136;DHT22;1578;47.658;9.922;2023-03-01T16:15:33;1.90;46.20
3136;DHT22;1578;47.658;9.922;2023-03-01T16:18:00;1.90;46.60
3136;DHT22;1578;47.658;9.922;2023-03-01T16:20:27;1.80;46.50
3136;DHT22;1578;47.658;9.922;2023-03-01T16:22:53;1.70;47.40
3136;DHT22;1578;47.658;9.922;2023-03-01T16:25:20;1.60;49.70
3136;DHT22;1578;47.658;9.922;2023-03-01T16:27:49;1.70;48.60
3136;DHT22;1578;47.658;9.922;2023-03-01T16:30:16;1.80;47.20
3136;DHT22;1578;47.658;9.922;2023-03-01T16:32:44;1.70;47.60
3136;DHT22;1578;47.658;9.922;2023-03-01T16:35:13;1.80;46.80
3136;DHT22;1578;47.658;9.922;2023-03-01T16:37:40;1.60;48.00
3136;DHT22;1578;47.658;9.922;2023-03-01T16:40:11;1.70;47.60
3136;DHT22;1578;47.658;9.922;2023-03-01T16:42:41;1.60;48.10
3136;DHT22;1578;47.658;9.922;2023-03-01T16:45:08;1.60;49.20
3136;DHT22;1578;47.658;9.922;2023-03-01T16:47:34;1.50;49.30
3136;DHT22;1578;47.658;9.922;2023-03-01T16:50:00;1.50;49.70
3136;DHT22;1578;47.658;9.922;2023-03-01T16:52:26;1.50;50.00
3136;DHT22;1578;47.658;9.922;2023-03-01T16:54:53;1.40;49.80
3136;DHT22;1578;47.658;9.922;2023-03-01T16:57:19;1.40;50.50
3136;DHT22;1578;47.658;9.922;2023-03-01T16:59:44;1.40;50.50
3136;DHT22;1578;47.658;9.922;2023-03-01T17:02:12;1.40;51.10
3136;DHT22;1578;47.658;9.922;2023-03-01T17:04:40;1.40;51.00
3136;DHT22;1578;47.658;9.922;2023-03-01T17:07:06;1.50;51.00
3136;DHT22;1578;47.658;9.922;2023-03-01T17:09:36;1.50;50.20
3136;DHT22;1578;47.658;9.922;2023-03-01T17:12:04;1.50;50.70
3136;DHT22;1578;47.658;9.922;2023-03-01T17:14:31;1.50;51.40
3136;DHT22;1578;47.658;9.922;2023-03-01T17:16:59;1.40;51.80
3136;DHT22;1578;47.658;9.922;2023-03-01T17:19:24;1.40;52.40
3136;DHT22;1578;47.658;9.922;2023-03-01T17:21:50;1.50;51.50
3136;DHT22;1578;47.658;9.922;2023-03-01T17:24:16;1.60;50.70
3136;DHT22;1578;47.658;9.922;2023-03-01T17:26:42;1.60;49.30
3136;DHT22;1578;47.658;9.922;2023-03-01T17:29:07;1.60;50.70
3136;DHT22;1578;47.658;9.922;2023-03-01T17:31:33;1.60;49.80
3136;DHT22;1578;47.658;9.922;2023-03-01T17:33:59;1.60;49.80
3136;DHT22;1578;47.658;9.922;2023-03-01T17:36:25;1.60;49.80
3136;DHT22;1578;47.658;9.922;2023-03-01T17:38:51;1.60;50.00
3136;DHT22;1578;47.658;9.922;2023-03-01T17:41:17;1.70;49.80
3136;DHT22;1578;47.658;9.922;2023-03-01T17:43:44;1.70;49.80
3136;DHT22;1578;47.658;9.922;2023-03-01T17:46:10;1.80;48.70
3136;DHT22;1578;47.658;9.922;2023-03-01T17:48:36;1.90;48.60
3136;DHT22;1578;47.658;9.922;2023-03-01T17:51:06;1.90;48.60
3136;DHT22;1578;47.658;9.922;2023-03-01T17:53:32;1.90;49.10
3136;DHT22;1578;47.658;9.922;2023-03-01T17:56:00;1.90;50.00
3136;DHT22;1578;47.658;9.922;2023-03-01T17:58:26;2.00;48.60
3136;DHT22;1578;47.658;9.922;2023-03-01T18:00:52;1.90;48.80
3136;DHT22;1578;47.658;9.922;2023-03-01T18:03:17;2.00;48.70
3136;DHT22;1578;47.658;9.922;2023-03-01T18:05:43;2.00;48.40
3136;DHT22;1578;47.658;9.922;2023-03-01T18:08:09;2.00;49.40